sensor_id;sensor_type;location;lat;lon;timestamp;temperature;humidity
71367;DHT22;60030;52.274;8.040;2023-03-20T00:00:26;11.60;99.90
71367;DHT22;60030;52.274;8.040;2023-03-20T00:02:53;11.50;99.90
71367;DHT22;60030;52.274;8.040;2023-03-20T00:05:22;11.50;99.90
71367;DHT22;60030;52.274;8.040;2023-03-20T00:07:50;11.50;99.90
71367;DHT22;60030;52.274;8.040;2023-03-20T00:10:18;11.40;99.90
71367;DHT22;60030;52.274;8.040;2023-03-20T00:12:47;11.40;99.90
71367;DHT22;60030;52.274;8.040;2023-03-20T00:15:32;11.40;99.90
71367;DHT22;60030;52.274;8.040;2023-03-20T00:18:01;11.40;99.90
71367;DHT22;60030;52.274;8.040;2023-03-20T00:20:28;11.40;99.90
71367;DHT22;60030;52.274;8.040;2023-03-20T00:22:55;11.50;99.90
71367;DHT22;60030;52.274;8.040;2023-03-20T00:25:23;11.40;99.90
71367;DHT22;60030;52.274;8.040;2023-03-20T00:27:51;11.30;99.90
71367;DHT22;60030;52.274;8.040;2023-03-20T00:30:25;11.40;99.90
71367;DHT22;60030;52.274;8.040;2023-03-20T00:32:56;11.40;99.90
71367;DHT22;60030;52.274;8.040;2023-03-20T00:35:26;11.20;99.90
71367;DHT22;60030;52.274;8.040;2023-03-20T00:37:55;11.10;99.90
71367;DHT22;60030;52.274;8.040;2023-03-20T00:40:26;11.20;99.90
71367;DHT22;60030;52.274;8.040;2023-03-20T00:42:58;11.30;99.90
71367;DHT22;60030;52.274;8.040;2023-03-20T00:45:26;11.30;99.90
71367;DHT22;60030;52.274;8.040;2023-03-20T00:47:55;11.30;99.90
71367;DHT22;60030;52.274;8.040;2023-03-20T00:50:25;11.30;99.90
71367;DHT22;60030;52.274;8.040;2023-03-20T00:52:55;11.30;99.90
71367;DHT22;60030;52.274;8.040;2023-03-20T00:55:23;11.30;99.90
71367;DHT22;60030;52.274;8.040;2023-03-20T00:57:53;11.30;99.90
71367;DHT22;60030;52.274;8.040;2023-03-20T01:00:29;11.20;99.90
71367;DHT22;60030;52.274;8.040;2023-03-20T01:02:58;11.10;99.90
71367;DHT22;60030;52.274;8.040;2023-03-20T01:05:26;11.10;99.90
71367;DHT22;60030;52.274;8.040;2023-03-20T01:07:53;11.10;99.90
71367;DHT22;60030;52.274;8.040;2023-03-20T01:10:23;11.00;99.90
71367;DHT22;60030;52.274;8.040;2023-03-20T01:12:54;11.00;99.90
71367;DHT22;60030;52.274;8.040;2023-03-20T01:15:26;11.10;99.90
71367;DHT22;60030;52.274;8.040;2023-03-20T01:17:55;11.10;99.90
71367;DHT22;60030;52.274;8.040;2023-03-20T01:20:26;11.00;99.90
71367;DHT22;60030;52.274;8.040;2023-03-20T01:22:54;11.00;99.90
71367;DHT22;60030;52.274;8.040;2023-03-20T01:25:21;11.00;99.90
71367;DHT22;60030;52.274;8.040;2023-03-20T01:27:50;10.90;99.90
71367;DHT22;60030;52.274;8.040;2023-03-20T01:30:21;10.90;99.90
71367;DHT22;60030;52.274;8.040;2023-03-20T01:32:49;10.90;99.90
71367;DHT22;60030;52.274;8.040;2023-03-20T01:35:18;10.90;99.90
71367;DHT22;60030;52.274;8.040;2023-03-20T01:37:48;10.90;99.90
71367;DHT22;60030;52.274;8.040;2023-03-20T01:40:29;10.90;99.90
71367;DHT22;60030;52.274;8.040;2023-03-20T01:42:58;10.90;99.90
71367;DHT22;60030;52.274;8.040;2023-03-20T01:45:29;11.00;99.90
71367;DHT22;60030;52.274;8.040;2023-03-20T01:47:59;11.00;99.90
71367;DHT22;60030;52.274;8.040;2023-03-20T01:50:29;11.00;99.90
71367;DHT22;60030;52.274;8.040;2023-03-20T01:53:09;11.10;99.90
71367;DHT22;60030;52.274;8.040;2023-03-20T01:55:44;11.10;99.90
71367;DHT22;60030;52.274;8.040;2023-03-20T01:58:17;11.10;99.90
71367;DHT22;60030;52.274;8.040;2023-03-20T02:00:46;11.10;99.90
71367;DHT22;60030;52.274;8.040;2023-03-20T02:03:16;11.10;99.90
71367;DHT22;60030;52.274;8.040;2023-03-20T02:06:04;11.10;99.90
71367;DHT22;60030;52.274;8.040;2023-03-20T02:08:53;11.20;99.90
71367;DHT22;60030;52.274;8.040;2023-03-20T02:11:23;11.10;99.90
71367;DHT22;60030;52.274;8.040;2023-03-20T02:13:51;11.20;99.90
71367;DHT22;60030;52.274;8.040;2023-03-20T02:16:20;11.20;99.90
71367;DHT22;60030;52.274;8.040;2023-03-20T02:19:08;11.30;99.90
71367;DHT22;60030;52.274;8.040;2023-03-20T02:22:16;11.30;99.90
71367;DHT22;60030;52.274;8.040;2023-03-20T02:31:10;11.20;99.90
71367;DHT22;60030;52.274;8.040;2023-03-20T02:34:14;11.10;99.90
71367;DHT22;60030;52.274;8.040;2023-03-20T02:37:21;11.20;99.90
71367;DHT22;60030;52.274;8.040;2023-03-20T02:40:05;11.10;99.90
71367;DHT22;60030;52.274;8.040;2023-03-20T02:42:38;11.10;99.90
71367;DHT22;60030;52.274;8.040;2023-03-20T02:45:15;11.10;99.90
71367;DHT22;60030;52.274;8.040;2023-03-20T02:47:49;11.00;99.90
71367;DHT22;60030;52.274;8.040;2023-03-20T02:50:26;11.00;99.90
71367;DHT22;60030;52.274;8.040;2023-03-20T02:53:11;10.80;99.90
71367;DHT22;60030;52.274;8.040;2023-03-20T02:55:46;10.80;99.90
71367;DHT22;60030;52.274;8.040;2023-03-20T02:58:17;10.80;99.90
71367;DHT22;60030;52.274;8.040;2023-03-20T03:00:50;10.80;99.90
71367;DHT22;60030;52.274;8.040;2023-03-20T03:03:23;10.80;99.90
71367;DHT22;60030;52.274;8.040;2023-03-20T03:05:55;10.80;99.90
71367;DHT22;60030;52.274;8.040;2023-03-20T03:08:29;10.80;99.90
71367;DHT22;60030;52.274;8.040;2023-03-20T03:11:00;10.70;99.90
71367;DHT22;60030;52.274;8.040;2023-03-20T03:13:31;10.80;99.90
71367;DHT22;60030;52.274;8.040;2023-03-20T03:16:05;10.90;99.90
71367;DHT22;60030;52.274;8.040;2023-03-20T03:18:34;10.90;99.90
71367;DHT22;60030;52.274;8.040;2023-03-20T03:21:05;10.90;99.90
71367;DHT22;60030;52.274;8.040;2023-03-20T03:23:41;10.90;99.90
71367;DHT22;60030;52.274;8.040;2023-03-20T03:26:13;11.00;99.90
71367;DHT22;60030;52.274;8.040;2023-03-20T03:28:44;10.90;99.90
71367;DHT22;60030;52.274;8.040;2023-03-20T03:31:16;10.90;99.90
71367;DHT22;60030;52.274;8.040;2023-03-20T03:33:47;10.90;99.90
71367;DHT22;60030;52.274;8.040;2023-03-20T03:36:23;10.80;99.90
71367;DHT22;60030;52.274;8.040;2023-03-20T03:38:57;10.80;99.90
71367;DHT22;60030;52.274;8.040;2023-03-20T03:41:29;10.70;99.90
71367;DHT22;60030;52.274;8.040;2023-03-20T03:44:06;10.80;99.90
71367;DHT22;60030;52.274;8.040;2023-03-20T03:46:39;10.80;99.90
71367;DHT22;60030;52.274;8.040;2023-03-20T03:49:09;10.90;99.90
71367;DHT22;60030;52.274;8.040;2023-03-20T03:51:41;10.90;99.90
71367;DHT22;60030;52.274;8.040;2023-03-20T03:54:16;10.90;99.90
71367;DHT22;60030;52.274;8.040;2023-03-20T03:56:54;10.90;99.90
71367;DHT22;60030;52.274;8.040;2023-03-20T03:59:25;10.90;99.90
71367;DHT22;60030;52.274;8.040;2023-03-20T04:01:54;10.80;99.90
71367;DHT22;60030;52.274;8.040;2023-03-20T04:04:23;10.80;99.90
71367;DHT22;60030;52.274;8.040;2023-03-20T04:06:51;10.60;99.90
71367;DHT22;60030;52.274;8.040;2023-03-20T04:09:20;10.60;99.90
71367;DHT22;60030;52.274;8.040;2023-03-20T04:11:49;10.70;99.90
71367;DHT22;60030;52.274;8.040;2023-03-20T04:14:18;10.80;99.90
71367;DHT22;60030;52.274;8.040;2023-03-20T04:16:45;10.70;99.90
71367;DHT22;60030;52.274;8.040;2023-03-20T04:19:13;10.70;99.90
71367;DHT22;60030;52.274;8.040;2023-03-20T04:21:43;10.60;99.90
71367;DHT22;60030;52.274;8.040;2023-03-20T04:24:11;10.70;99.90
71367;DHT22;60030;52.274;8.040;2023-03-20T04:26:39;10.70;99.90
71367;DHT22;60030;52.274;8.040;2023-03-20T04:29:06;10.70;99.90
71367;DHT22;60030;52.274;8.040;2023-03-20T04:31:47;10.80;99.90
71367;DHT22;60030;52.274;8.040;2023-03-20T04:34:30;10.80;99.90
71367;DHT22;60030;52.274;8.040;2023-03-20T04:37:13;10.60;99.90
71367;DHT22;60030;52.274;8.040;2023-03-20T04:39:48;10.50;99.90
71367;DHT22;60030;52.274;8.040;2023-03-20T04:42:17;10.60;99.90
71367;DHT22;60030;52.274;8.040;2023-03-20T04:44:44;10.60;99.90
71367;DHT22;60030;52.274;8.040;2023-03-20T04:47:11;10.70;99.90
71367;DHT22;60030;52.274;8.040;2023-03-20T04:49:41;10.50;99.90
71367;DHT22;60030;52.274;8.040;2023-03-20T04:52:09;10.50;99.90
71367;DHT22;60030;52.274;8.040;2023-03-20T04:54:39;10.60;99.90
71367;DHT22;60030;52.274;8.040;2023-03-20T04:57:06;10.70;99.90
71367;DHT22;60030;52.274;8.040;2023-03-20T04:59:35;10.70;99.90
71367;DHT22;60030;52.274;8.040;2023-03-20T05:02:03;10.50;99.90
71367;DHT22;60030;52.274;8.040;2023-03-20T05:04:30;10.60;99.90
71367;DHT22;60030;52.274;8.040;2023-03-20T05:06:57;10.50;99.90
71367;DHT22;60030;52.274;8.040;2023-03-20T05:09:31;10.60;99.90
71367;DHT22;60030;52.274;8.040;2023-03-20T05:12:01;10.60;99.90
71367;DHT22;60030;52.274;8.040;2023-03-20T05:14:48;10.60;99.90
71367;DHT22;60030;52.274;8.040;2023-03-20T05:17:34;10.60;99.90
71367;DHT22;60030;52.274;8.040;2023-03-20T05:20:13;10.60;99.90
71367;DHT22;60030;52.274;8.040;2023-03-20T05:23:00;10.50;99.90
71367;DHT22;60030;52.274;8.040;2023-03-20T05:25:46;10.60;99.90
71367;DHT22;60030;52.274;8.040;2023-03-20T05:28:34;10.50;99.90
71367;DHT22;60030;52.274;8.040;2023-03-20T05:31:24;10.60;99.90
71367;DHT22;60030;52.274;8.040;2023-03-20T05:34:12;10.60;99.90
71367;DHT22;60030;52.274;8.040;2023-03-20T05:37:00;10.50;99.90
71367;DHT22;60030;52.274;8.040;2023-03-20T05:39:41;10.40;99.90
71367;DHT22;60030;52.274;8.040;2023-03-20T05:42:27;10.40;99.90
71367;DHT22;60030;52.274;8.040;2023-03-20T05:45:23;10.50;99.90
71367;DHT22;60030;52.274;8.040;2023-03-20T05:48:20;10.60;99.90
71367;DHT22;60030;52.274;8.040;2023-03-20T05:51:25;10.50;99.90
71367;DHT22;60030;52.274;8.040;2023-03-20T05:53:58;10.50;99.90
71367;DHT22;60030;52.274;8.040;2023-03-20T05:56:28;10.40;99.90
71367;DHT22;60030;52.274;8.040;2023-03-20T05:59:18;10.40;99.90
71367;DHT22;60030;52.274;8.040;2023-03-20T06:02:11;10.40;99.90
71367;DHT22;60030;52.274;8.040;2023-03-20T06:04:44;10.30;99.90
71367;DHT22;60030;52.274;8.040;2023-03-20T06:07:20;10.30;99.90
71367;DHT22;60030;52.274;8.040;2023-03-20T06:09:56;10.50;99.90
71367;DHT22;60030;52.274;8.040;2023-03-20T06:12:23;10.50;99.90
71367;DHT22;60030;52.274;8.040;2023-03-20T06:14:50;10.50;99.90
71367;DHT22;60030;52.274;8.040;2023-03-20T06:17:17;10.40;99.90
71367;DHT22;60030;52.274;8.040;2023-03-20T06:19:51;10.50;99.90
71367;DHT22;60030;52.274;8.040;2023-03-20T06:22:19;10.50;99.90
71367;DHT22;60030;52.274;8.040;2023-03-20T06:24:46;10.40;99.90
71367;DHT22;60030;52.274;8.040;2023-03-20T06:27:14;10.50;99.90
71367;DHT22;60030;52.274;8.040;2023-03-20T06:29:42;10.50;99.90
71367;DHT22;60030;52.274;8.040;2023-03-20T06:32:14;10.60;99.90
71367;DHT22;60030;52.274;8.040;2023-03-20T06:34:43;10.60;99.90
71367;DHT22;60030;52.274;8.040;2023-03-20T06:37:11;10.60;99.90
71367;DHT22;60030;52.274;8.040;2023-03-20T06:39:38;10.50;99.90
71367;DHT22;60030;52.274;8.040;2023-03-20T06:42:09;10.50;99.90
71367;DHT22;60030;52.274;8.040;2023-03-20T06:44:39;10.40;99.90
71367;DHT22;60030;52.274;8.040;2023-03-20T06:47:14;10.40;99.90
71367;DHT22;60030;52.274;8.040;2023-03-20T06:49:42;10.40;99.90
71367;DHT22;60030;52.274;8.040;2023-03-20T06:52:14;10.30;99.90
71367;DHT22;60030;52.274;8.040;2023-03-20T06:54:43;10.20;99.90
71367;DHT22;60030;52.274;8.040;2023-03-20T06:57:10;10.30;99.90
71367;DHT22;60030;52.274;8.040;2023-03-20T06:59:38;10.30;99.90
71367;DHT22;60030;52.274;8.040;2023-03-20T07:02:05;10.30;99.90
71367;DHT22;60030;52.274;8.040;2023-03-20T07:04:32;10.40;99.90
71367;DHT22;60030;52.274;8.040;2023-03-20T07:07:01;10.40;99.90
71367;DHT22;60030;52.274;8.040;2023-03-20T07:09:31;10.50;99.90
71367;DHT22;60030;52.274;8.040;2023-03-20T07:11:58;10.50;99.90
71367;DHT22;60030;52.274;8.040;2023-03-20T07:14:25;10.50;99.90
71367;DHT22;60030;52.274;8.040;2023-03-20T07:16:56;10.50;99.90
71367;DHT22;60030;52.274;8.040;2023-03-20T07:19:23;10.70;99.90
71367;DHT22;60030;52.274;8.040;2023-03-20T07:21:57;10.70;99.90
71367;DHT22;60030;52.274;8.040;2023-03-20T07:24:28;10.70;99.90
71367;DHT22;60030;52.274;8.040;2023-03-20T07:26:58;10.70;99.90
71367;DHT22;60030;52.274;8.040;2023-03-20T07:29:25;10.60;99.90
71367;DHT22;60030;52.274;8.040;2023-03-20T07:31:54;10.80;99.90
71367;DHT22;60030;52.274;8.040;2023-03-20T07:34:24;10.80;99.90
71367;DHT22;60030;52.274;8.040;2023-03-20T07:36:51;10.80;99.90
71367;DHT22;60030;52.274;8.040;2023-03-20T07:39:21;10.80;99.90
71367;DHT22;60030;52.274;8.040;2023-03-20T07:42:09;10.70;99.90
71367;DHT22;60030;52.274;8.040;2023-03-20T07:44:44;10.80;99.90
71367;DHT22;60030;52.274;8.040;2023-03-20T07:47:11;10.90;99.90
71367;DHT22;60030;52.274;8.040;2023-03-20T07:49:38;11.00;99.90
71367;DHT22;60030;52.274;8.040;2023-03-20T07:52:07;10.90;99.90
71367;DHT22;60030;52.274;8.040;2023-03-20T07:54:34;10.90;99.90
71367;DHT22;60030;52.274;8.040;2023-03-20T07:57:01;10.80;99.90
71367;DHT22;60030;52.274;8.040;2023-03-20T07:59:31;10.70;99.90
71367;DHT22;60030;52.274;8.040;2023-03-20T08:01:58;10.90;99.90
71367;DHT22;60030;52.274;8.040;2023-03-20T08:04:25;10.90;99.90
71367;DHT22;60030;52.274;8.040;2023-03-20T08:06:52;11.10;99.90
71367;DHT22;60030;52.274;8.040;2023-03-20T08:09:19;11.10;99.90
71367;DHT22;60030;52.274;8.040;2023-03-20T08:11:46;10.90;99.90
71367;DHT22;60030;52.274;8.040;2023-03-20T08:14:14;11.00;99.90
71367;DHT22;60030;52.274;8.040;2023-03-20T08:16:42;11.00;99.90
71367;DHT22;60030;52.274;8.040;2023-03-20T08:19:09;11.00;99.90
71367;DHT22;60030;52.274;8.040;2023-03-20T08:21:36;11.20;99.90
71367;DHT22;60030;52.274;8.040;2023-03-20T08:24:03;11.30;99.90
71367;DHT22;60030;52.274;8.040;2023-03-20T08:26:31;11.50;99.90
71367;DHT22;60030;52.274;8.040;2023-03-20T08:28:58;11.50;99.90
71367;DHT22;60030;52.274;8.040;2023-03-20T08:31:25;11.50;99.90
71367;DHT22;60030;52.274;8.040;2023-03-20T08:33:54;11.50;99.90
71367;DHT22;60030;52.274;8.040;2023-03-20T08:36:22;11.10;99.90
71367;DHT22;60030;52.274;8.040;2023-03-20T08:38:49;11.40;99.90
71367;DHT22;60030;52.274;8.040;2023-03-20T08:41:16;11.50;99.90
71367;DHT22;60030;52.274;8.040;2023-03-20T08:43:43;11.20;99.90
71367;DHT22;60030;52.274;8.040;2023-03-20T08:46:11;11.40;99.90
71367;DHT22;60030;52.274;8.040;2023-03-20T08:48:38;11.50;99.90
71367;DHT22;60030;52.274;8.040;2023-03-20T08:51:07;11.50;99.90
71367;DHT22;60030;52.274;8.040;2023-03-20T08:53:35;11.60;99.90
71367;DHT22;60030;52.274;8.040;2023-03-20T08:56:02;11.70;99.90
71367;DHT22;60030;52.274;8.040;2023-03-20T08:58:29;11.70;99.90
71367;DHT22;60030;52.274;8.040;2023-03-20T09:00:56;11.80;99.90
71367;DHT22;60030;52.274;8.040;2023-03-20T09:03:27;11.90;99.90
71367;DHT22;60030;52.274;8.040;2023-03-20T09:05:54;11.80;99.90
71367;DHT22;60030;52.274;8.040;2023-03-20T09:08:23;12.00;99.90
71367;DHT22;60030;52.274;8.040;2023-03-20T09:10:50;11.80;99.90
71367;DHT22;60030;52.274;8.040;2023-03-20T09:13:17;11.90;99.90
71367;DHT22;60030;52.274;8.040;2023-03-20T09:15:44;12.10;99.90
71367;DHT22;60030;52.274;8.040;2023-03-20T09:18:11;11.90;99.90
71367;DHT22;60030;52.274;8.040;2023-03-20T09:20:38;12.20;99.90
71367;DHT22;60030;52.274;8.040;2023-03-20T09:23:06;12.00;99.90
71367;DHT22;60030;52.274;8.040;2023-03-20T09:25:34;12.00;99.90
71367;DHT22;60030;52.274;8.040;2023-03-20T09:28:01;11.70;99.90
71367;DHT22;60030;52.274;8.040;2023-03-20T09:30:28;11.80;99.90
71367;DHT22;60030;52.274;8.040;2023-03-20T09:32:56;11.90;99.90
71367;DHT22;60030;52.274;8.040;2023-03-20T09:35:23;12.00;99.90
71367;DHT22;60030;52.274;8.040;2023-03-20T09:37:50;11.90;99.90
71367;DHT22;60030;52.274;8.040;2023-03-20T09:40:23;11.90;99.90
71367;DHT22;60030;52.274;8.040;2023-03-20T09:42:58;12.20;99.90
71367;DHT22;60030;52.274;8.040;2023-03-20T09:45:38;12.10;99.90
71367;DHT22;60030;52.274;8.040;2023-03-20T09:48:14;12.40;99.90
71367;DHT22;60030;52.274;8.040;2023-03-20T09:50:47;12.60;99.90
71367;DHT22;60030;52.274;8.040;2023-03-20T09:53:20;12.60;99.90
71367;DHT22;60030;52.274;8.040;2023-03-20T09:55:49;12.70;99.90
71367;DHT22;60030;52.274;8.040;2023-03-20T09:58:23;12.70;99.90
71367;DHT22;60030;52.274;8.040;2023-03-20T10:00:55;12.40;99.90
71367;DHT22;60030;52.274;8.040;2023-03-20T10:03:27;12.30;99.90
71367;DHT22;60030;52.274;8.040;2023-03-20T10:05:57;12.50;99.90
71367;DHT22;60030;52.274;8.040;2023-03-20T10:08:27;12.60;99.90
71367;DHT22;60030;52.274;8.040;2023-03-20T10:11:03;12.40;99.90
71367;DHT22;60030;52.274;8.040;2023-03-20T10:13:47;12.10;99.90
71367;DHT22;60030;52.274;8.040;2023-03-20T10:16:24;12.20;99.90
71367;DHT22;60030;52.274;8.040;2023-03-20T10:18:59;12.40;99.90
71367;DHT22;60030;52.274;8.040;2023-03-20T10:21:34;12.50;99.90
71367;DHT22;60030;52.274;8.040;2023-03-20T10:24:05;12.40;99.90
71367;DHT22;60030;52.274;8.040;2023-03-20T10:26:41;12.60;99.90
71367;DHT22;60030;52.274;8.040;2023-03-20T10:29:17;12.70;99.90
71367;DHT22;60030;52.274;8.040;2023-03-20T10:31:49;12.80;99.90
71367;DHT22;60030;52.274;8.040;2023-03-20T10:34:29;12.60;99.90
71367;DHT22;60030;52.274;8.040;2023-03-20T10:37:17;12.70;99.90
71367;DHT22;60030;52.274;8.040;2023-03-20T10:39:53;13.10;99.90
71367;DHT22;60030;52.274;8.040;2023-03-20T10:42:26;13.10;99.90
71367;DHT22;60030;52.274;8.040;2023-03-20T10:44:59;13.20;99.90
71367;DHT22;60030;52.274;8.040;2023-03-20T10:47:29;13.40;99.90
71367;DHT22;60030;52.274;8.040;2023-03-20T10:50:01;13.20;99.90
71367;DHT22;60030;52.274;8.040;2023-03-20T10:52:31;13.10;99.90
71367;DHT22;60030;52.274;8.040;2023-03-20T10:55:02;13.40;99.90
71367;DHT22;60030;52.274;8.040;2023-03-20T10:57:32;13.40;99.90
71367;DHT22;60030;52.274;8.040;2023-03-20T11:00:02;13.50;99.90
71367;DHT22;60030;52.274;8.040;2023-03-20T11:02:38;13.30;99.90
71367;DHT22;60030;52.274;8.040;2023-03-20T11:05:17;13.40;99.90
71367;DHT22;60030;52.274;8.040;2023-03-20T11:07:46;13.20;99.90
71367;DHT22;60030;52.274;8.040;2023-03-20T11:10:16;13.40;99.90
71367;DHT22;60030;52.274;8.040;2023-03-20T11:12:44;13.30;99.90
71367;DHT22;60030;52.274;8.040;2023-03-20T11:15:20;13.40;99.90
71367;DHT22;60030;52.274;8.040;2023-03-20T11:17:55;13.30;99.90
71367;DHT22;60030;52.274;8.040;2023-03-20T11:20:23;13.20;99.90
71367;DHT22;60030;52.274;8.040;2023-03-20T11:22:56;13.00;99.90
71367;DHT22;60030;52.274;8.040;2023-03-20T11:25:29;13.00;99.90
71367;DHT22;60030;52.274;8.040;2023-03-20T11:27:57;12.80;99.90
71367;DHT22;60030;52.274;8.040;2023-03-20T11:30:45;13.00;99.90
71367;DHT22;60030;52.274;8.040;2023-03-20T11:33:13;12.90;99.90
71367;DHT22;60030;52.274;8.040;2023-03-20T11:35:44;13.10;99.90
71367;DHT22;60030;52.274;8.040;2023-03-20T11:38:14;12.90;99.90
71367;DHT22;60030;52.274;8.040;2023-03-20T11:40:42;13.00;99.90
71367;DHT22;60030;52.274;8.040;2023-03-20T11:43:11;12.90;99.90
71367;DHT22;60030;52.274;8.040;2023-03-20T11:45:40;12.80;99.90
71367;DHT22;60030;52.274;8.040;2023-03-20T11:48:17;12.50;99.90
71367;DHT22;60030;52.274;8.040;2023-03-20T11:50:46;12.40;99.90
71367;DHT22;60030;52.274;8.040;2023-03-20T11:53:23;12.60;99.90
71367;DHT22;60030;52.274;8.040;2023-03-20T11:56:02;12.50;99.90
71367;DHT22;60030;52.274;8.040;2023-03-20T11:58:31;12.60;99.90
71367;DHT22;60030;52.274;8.040;2023-03-20T12:01:00;12.80;99.90
71367;DHT22;60030;52.274;8.040;2023-03-20T12:03:38;12.40;99.90
71367;DHT22;60030;52.274;8.040;2023-03-20T12:06:07;12.40;99.90
71367;DHT22;60030;52.274;8.040;2023-03-20T12:08:37;12.10;99.90
71367;DHT22;60030;52.274;8.040;2023-03-20T12:14:01;12.20;99.90
71367;DHT22;60030;52.274;8.040;2023-03-20T12:16:31;12.00;99.90
71367;DHT22;60030;52.274;8.040;2023-03-20T12:19:05;12.10;99.90
71367;DHT22;60030;52.274;8.040;2023-03-20T12:21:39;12.10;99.90
71367;DHT22;60030;52.274;8.040;2023-03-20T12:24:12;12.10;99.90
71367;DHT22;60030;52.274;8.040;2023-03-20T12:26:47;12.10;99.90
71367;DHT22;60030;52.274;8.040;2023-03-20T12:29:21;12.40;99.90
71367;DHT22;60030;52.274;8.040;2023-03-20T12:31:55;12.30;99.90
71367;DHT22;60030;52.274;8.040;2023-03-20T12:34:28;12.30;99.90
71367;DHT22;60030;52.274;8.040;2023-03-20T12:36:58;12.30;99.90
71367;DHT22;60030;52.274;8.040;2023-03-20T12:39:30;12.50;99.90
71367;DHT22;60030;52.274;8.040;2023-03-20T12:42:08;12.50;99.90
71367;DHT22;60030;52.274;8.040;2023-03-20T12:44:40;12.40;99.90
71367;DHT22;60030;52.274;8.040;2023-03-20T12:47:19;12.40;99.90
71367;DHT22;60030;52.274;8.040;2023-03-20T12:49:56;12.30;99.90
71367;DHT22;60030;52.274;8.040;2023-03-20T12:52:32;12.20;99.90
71367;DHT22;60030;52.274;8.040;2023-03-20T12:55:15;12.00;99.90
71367;DHT22;60030;52.274;8.040;2023-03-20T12:57:54;12.00;99.90
71367;DHT22;60030;52.274;8.040;2023-03-20T13:00:29;11.80;99.90
71367;DHT22;60030;52.274;8.040;2023-03-20T13:03:08;11.70;99.90
71367;DHT22;60030;52.274;8.040;2023-03-20T13:05:44;11.80;99.90
71367;DHT22;60030;52.274;8.040;2023-03-20T13:11:17;11.90;99.90
71367;DHT22;60030;52.274;8.040;2023-03-20T13:13:51;11.80;99.90
71367;DHT22;60030;52.274;8.040;2023-03-20T13:16:26;11.80;99.90
71367;DHT22;60030;52.274;8.040;2023-03-20T13:19:02;11.90;99.90
71367;DHT22;60030;52.274;8.040;2023-03-20T13:21:41;12.00;99.90
71367;DHT22;60030;52.274;8.040;2023-03-20T13:24:26;12.00;99.90
71367;DHT22;60030;52.274;8.040;2023-03-20T13:27:00;12.00;99.90
71367;DHT22;60030;52.274;8.040;2023-03-20T13:29:40;11.80;99.90
71367;DHT22;60030;52.274;8.040;2023-03-20T13:32:19;12.10;99.90
71367;DHT22;60030;52.274;8.040;2023-03-20T13:35:02;12.00;99.90
71367;DHT22;60030;52.274;8.040;2023-03-20T13:37:35;11.90;99.90
71367;DHT22;60030;52.274;8.040;2023-03-20T13:40:12;12.00;99.90
71367;DHT22;60030;52.274;8.040;2023-03-20T13:42:44;11.90;99.90
71367;DHT22;60030;52.274;8.040;2023-03-20T13:45:23;11.90;99.90
71367;DHT22;60030;52.274;8.040;2023-03-20T13:47:52;11.90;99.90
71367;DHT22;60030;52.274;8.040;2023-03-20T13:50:32;12.00;99.90
71367;DHT22;60030;52.274;8.040;2023-03-20T13:53:07;12.10;99.90
71367;DHT22;60030;52.274;8.040;2023-03-20T13:55:42;12.10;99.90
71367;DHT22;60030;52.274;8.040;2023-03-20T13:58:26;12.00;99.90
71367;DHT22;60030;52.274;8.040;2023-03-20T14:01:00;12.30;99.90
71367;DHT22;60030;52.274;8.040;2023-03-20T14:03:34;12.50;99.90
71367;DHT22;60030;52.274;8.040;2023-03-20T14:06:15;12.70;99.90
71367;DHT22;60030;52.274;8.040;2023-03-20T14:08:48;12.90;99.90
71367;DHT22;60030;52.274;8.040;2023-03-20T14:11:26;13.00;99.90
71367;DHT22;60030;52.274;8.040;2023-03-20T14:14:02;13.20;99.90
71367;DHT22;60030;52.274;8.040;2023-03-20T14:16:30;12.90;99.90
71367;DHT22;60030;52.274;8.040;2023-03-20T14:19:06;13.30;99.90
71367;DHT22;60030;52.274;8.040;2023-03-20T14:21:34;13.10;99.90
71367;DHT22;60030;52.274;8.040;2023-03-20T14:24:04;12.90;99.90
71367;DHT22;60030;52.274;8.040;2023-03-20T14:26:35;13.10;99.90
71367;DHT22;60030;52.274;8.040;2023-03-20T14:29:19;13.40;99.90
71367;DHT22;60030;52.274;8.040;2023-03-20T14:31:47;12.90;99.90
71367;DHT22;60030;52.274;8.040;2023-03-20T14:34:19;13.10;99.90
71367;DHT22;60030;52.274;8.040;2023-03-20T14:36:56;13.10;99.90
71367;DHT22;60030;52.274;8.040;2023-03-20T14:39:42;12.90;99.90
71367;DHT22;60030;52.274;8.040;2023-03-20T14:42:25;12.80;99.90
71367;DHT22;60030;52.274;8.040;2023-03-20T14:48:06;12.40;99.90
71367;DHT22;60030;52.274;8.040;2023-03-20T14:50:38;12.00;99.90
71367;DHT22;60030;52.274;8.040;2023-03-20T14:53:15;11.80;99.90
71367;DHT22;60030;52.274;8.040;2023-03-20T14:55:50;11.80;99.90
71367;DHT22;60030;52.274;8.040;2023-03-20T15:01:47;12.10;99.90
71367;DHT22;60030;52.274;8.040;2023-03-20T15:04:37;12.00;99.90
71367;DHT22;60030;52.274;8.040;2023-03-20T15:07:10;12.00;99.90
71367;DHT22;60030;52.274;8.040;2023-03-20T15:09:42;12.00;99.90
71367;DHT22;60030;52.274;8.040;2023-03-20T15:12:13;11.80;99.90
71367;DHT22;60030;52.274;8.040;2023-03-20T15:14:44;11.90;99.90
71367;DHT22;60030;52.274;8.040;2023-03-20T15:17:19;11.80;99.90
71367;DHT22;60030;52.274;8.040;2023-03-20T15:19:47;11.80;99.90
71367;DHT22;60030;52.274;8.040;2023-03-20T15:22:16;12.00;99.90
71367;DHT22;60030;52.274;8.040;2023-03-20T15:24:51;11.90;99.90
71367;DHT22;60030;52.274;8.040;2023-03-20T15:27:20;12.00;99.90
71367;DHT22;60030;52.274;8.040;2023-03-20T15:29:50;12.00;99.90
71367;DHT22;60030;52.274;8.040;2023-03-20T15:32:18;12.00;99.90
71367;DHT22;60030;52.274;8.040;2023-03-20T15:34:47;12.20;99.90
71367;DHT22;60030;52.274;8.040;2023-03-20T15:37:16;12.30;99.90
71367;DHT22;60030;52.274;8.040;2023-03-20T15:39:47;12.10;99.90
71367;DHT22;60030;52.274;8.040;2023-03-20T15:42:16;12.00;99.90
71367;DHT22;60030;52.274;8.040;2023-03-20T15:44:47;12.00;99.90
71367;DHT22;60030;52.274;8.040;2023-03-20T15:47:17;11.80;99.90
71367;DHT22;60030;52.274;8.040;2023-03-20T15:49:49;11.80;99.90
71367;DHT22;60030;52.274;8.040;2023-03-20T15:52:23;11.80;99.90
71367;DHT22;60030;52.274;8.040;2023-03-20T15:54:52;11.90;99.90
71367;DHT22;60030;52.274;8.040;2023-03-20T15:57:24;11.70;99.90
71367;DHT22;60030;52.274;8.040;2023-03-20T15:59:53;11.80;99.90
71367;DHT22;60030;52.274;8.040;2023-03-20T16:02:21;11.60;99.90
71367;DHT22;60030;52.274;8.040;2023-03-20T16:04:50;11.70;99.90
71367;DHT22;60030;52.274;8.040;2023-03-20T16:07:21;11.70;99.90
71367;DHT22;60030;52.274;8.040;2023-03-20T16:09:49;11.60;99.90
71367;DHT22;60030;52.274;8.040;2023-03-20T16:12:17;11.60;99.90
71367;DHT22;60030;52.274;8.040;2023-03-20T16:14:46;11.60;99.90
71367;DHT22;60030;52.274;8.040;2023-03-20T16:17:16;11.80;99.90
71367;DHT22;60030;52.274;8.040;2023-03-20T16:19:43;11.90;99.90
71367;DHT22;60030;52.274;8.040;2023-03-20T16:22:18;12.00;99.90